createdAt,value
2018-11-26T00:02:02.374Z,3.03
2018-11-26T00:04:30.822Z,4.03
2018-11-26T00:06:59.263Z,3.37
2018-11-26T00:09:28.845Z,5.30
2018-11-26T00:11:58.031Z,4.00
2018-11-26T00:14:26.372Z,2.47
2018-11-26T00:16:55.098Z,4.23
2018-11-26T00:19:27.485Z,3.03
2018-11-26T00:21:59.556Z,4.47
2018-11-26T00:24:29.987Z,3.60
2018-11-26T00:26:58.397Z,5.07
2018-11-26T00:29:26.744Z,4.50
2018-11-26T00:31:55.032Z,4.50
2018-11-26T00:34:23.320Z,4.20
2018-11-26T00:36:51.618Z,5.23
2018-11-26T00:39:20.040Z,5.27
2018-11-26T00:41:48.328Z,4.37
2018-11-26T00:44:16.677Z,4.93
2018-11-26T00:46:44.975Z,3.90
2018-11-26T00:49:13.256Z,5.00
2018-11-26T00:51:41.616Z,3.40
2018-11-26T00:54:09.927Z,4.10
2018-11-26T00:56:38.188Z,4.63
2018-11-26T00:59:06.468Z,3.70
2018-11-26T01:01:34.743Z,3.77
2018-11-26T01:04:03.023Z,5.20
2018-11-26T01:06:31.263Z,4.17
2018-11-26T01:08:59.588Z,3.93
2018-11-26T01:11:27.848Z,3.20
2018-11-26T01:13:56.132Z,4.33
2018-11-26T01:16:24.510Z,4.30
2018-11-26T01:18:52.780Z,3.60
2018-11-26T01:21:21.026Z,3.60
2018-11-26T01:23:49.336Z,4.73
2018-11-26T01:26:17.677Z,4.60
2018-11-26T01:28:45.955Z,3.80
2018-11-26T01:31:14.232Z,5.00
2018-11-26T01:33:42.532Z,4.80
2018-11-26T01:36:10.805Z,4.90
2018-11-26T01:38:39.067Z,5.20
2018-11-26T01:41:07.374Z,3.50
2018-11-26T01:43:35.654Z,4.00
2018-11-26T01:46:03.995Z,4.80
2018-11-26T01:48:32.288Z,4.13
2018-11-26T01:51:00.571Z,2.97
2018-11-26T01:53:28.852Z,3.50
2018-11-26T01:55:57.124Z,2.77
2018-11-26T01:58:25.375Z,3.83
2018-11-26T02:00:53.658Z,5.47
2018-11-26T02:03:21.955Z,4.57
2018-11-26T02:05:50.340Z,3.50
2018-11-26T02:08:18.631Z,5.00
2018-11-26T02:10:46.883Z,3.43
2018-11-26T02:13:15.174Z,3.60
2018-11-26T02:15:43.536Z,3.70
2018-11-26T02:18:11.916Z,3.83
2018-11-26T02:20:40.180Z,4.40
2018-11-26T02:23:08.581Z,4.60
2018-11-26T02:25:36.972Z,4.10
2018-11-26T02:28:05.400Z,4.03
2018-11-26T02:30:33.684Z,3.87
2018-11-26T02:33:02.050Z,3.43
2018-11-26T02:35:30.373Z,4.70
2018-11-26T02:37:58.636Z,4.70
2018-11-26T02:40:28.897Z,4.37
2018-11-26T02:42:57.157Z,4.30
2018-11-26T02:45:25.692Z,3.90
2018-11-26T02:47:53.995Z,3.80
2018-11-26T02:50:22.271Z,4.47
2018-11-26T02:52:50.542Z,4.10
2018-11-26T02:55:18.828Z,4.20
2018-11-26T02:57:47.102Z,3.70
2018-11-26T03:00:15.388Z,3.27
2018-11-26T03:02:43.693Z,4.50
2018-11-26T03:05:12.856Z,4.30
2018-11-26T03:07:41.140Z,4.10
2018-11-26T03:10:10.360Z,3.43
2018-11-26T03:12:39.050Z,4.00
2018-11-26T03:15:11.152Z,3.53
2018-11-26T03:17:39.737Z,4.63
2018-11-26T03:20:09.341Z,4.40
2018-11-26T03:22:37.640Z,2.90
2018-11-26T03:25:07.463Z,5.67
2018-11-26T03:27:35.757Z,4.10
2018-11-26T03:30:05.851Z,4.20
2018-11-26T03:32:34.111Z,3.90
2018-11-26T03:35:02.405Z,4.80
2018-11-26T03:37:30.727Z,5.90
2018-11-26T03:39:58.979Z,5.57
2018-11-26T03:42:27.231Z,3.90
2018-11-26T03:44:55.524Z,4.43
2018-11-26T03:47:23.804Z,3.87
2018-11-26T03:49:52.067Z,3.97
2018-11-26T03:52:20.322Z,3.93
2018-11-26T03:54:48.620Z,5.20
2018-11-26T03:57:16.895Z,4.53
2018-11-26T03:59:45.145Z,5.43
2018-11-26T04:02:13.503Z,4.60
2018-11-26T04:04:41.811Z,4.50
2018-11-26T04:07:10.083Z,5.50
2018-11-26T04:09:38.361Z,3.37
2018-11-26T04:12:06.730Z,4.47
2018-11-26T04:14:35.016Z,4.07
2018-11-26T04:17:05.684Z,3.47
2018-11-26T04:19:33.983Z,5.10
2018-11-26T04:22:02.319Z,5.23
2018-11-26T04:24:30.605Z,4.57
2018-11-26T04:26:58.960Z,3.00
2018-11-26T04:29:27.261Z,4.67
2018-11-26T04:31:55.585Z,5.30
2018-11-26T04:34:23.878Z,3.60
2018-11-26T04:36:52.165Z,4.40
2018-11-26T04:39:20.457Z,7.83
2018-11-26T04:41:48.753Z,6.23
2018-11-26T04:44:17.090Z,5.30
2018-11-26T04:46:45.350Z,6.00
2018-11-26T04:49:13.645Z,4.13
2018-11-26T04:51:41.915Z,4.00
2018-11-26T04:54:10.186Z,6.10
2018-11-26T04:56:38.467Z,6.10
2018-11-26T04:59:06.762Z,7.27
2018-11-26T05:01:35.078Z,5.40
2018-11-26T05:04:03.357Z,5.80
2018-11-26T05:06:31.600Z,5.47
2018-11-26T05:08:59.866Z,5.10
2018-11-26T05:11:28.175Z,4.33
2018-11-26T05:13:56.428Z,4.93
2018-11-26T05:16:24.724Z,4.23
2018-11-26T05:18:53.028Z,3.83
2018-11-26T05:21:21.348Z,3.83
2018-11-26T05:23:49.642Z,5.60
2018-11-26T05:26:17.909Z,4.10
2018-11-26T05:28:46.215Z,4.20
2018-11-26T05:31:14.497Z,3.83
2018-11-26T05:33:42.750Z,3.93
2018-11-26T05:36:10.996Z,4.93
2018-11-26T05:38:39.265Z,4.70
2018-11-26T05:41:07.541Z,5.77
2018-11-26T05:43:35.820Z,4.80
2018-11-26T05:46:04.232Z,5.53
2018-11-26T05:48:32.501Z,5.87
2018-11-26T05:51:00.757Z,6.80
2018-11-26T05:53:29.103Z,5.73
2018-11-26T05:55:57.366Z,5.80
2018-11-26T05:58:25.584Z,5.50
2018-11-26T06:00:53.856Z,4.33
2018-11-26T06:03:22.192Z,4.37
2018-11-26T06:05:50.427Z,3.40
2018-11-26T06:08:18.708Z,5.30
2018-11-26T06:10:47.077Z,5.63
2018-11-26T06:13:15.357Z,5.47
2018-11-26T06:15:43.613Z,4.23
2018-11-26T06:18:11.917Z,5.07
2018-11-26T06:20:40.170Z,5.40
2018-11-26T06:23:08.420Z,4.57
2018-11-26T06:25:36.660Z,5.30
2018-11-26T06:28:05.019Z,4.47
2018-11-26T06:30:33.315Z,5.17
2018-11-26T06:33:01.563Z,5.43
2018-11-26T06:35:29.840Z,5.43
2018-11-26T06:37:58.124Z,3.77
2018-11-26T06:40:26.451Z,4.87
2018-11-26T06:42:54.676Z,4.40
2018-11-26T06:45:23.332Z,5.97
2018-11-26T06:47:51.818Z,4.80
2018-11-26T06:50:20.816Z,4.60
2018-11-26T06:52:49.115Z,4.93
2018-11-26T06:55:18.325Z,5.20
2018-11-26T06:57:46.603Z,4.40
2018-11-26T07:00:16.173Z,6.30
2018-11-26T07:02:44.479Z,4.73
2018-11-26T07:05:16.036Z,5.00
2018-11-26T07:07:44.308Z,8.00
2018-11-26T07:10:13.326Z,6.40
2018-11-26T07:12:41.707Z,6.43
2018-11-26T07:15:18.318Z,5.67
2018-11-26T07:17:46.787Z,8.97
2018-11-26T07:20:18.290Z,9.90
2018-11-26T07:22:47.405Z,9.60
2018-11-26T07:25:17.894Z,12.60
2018-11-26T07:27:52.132Z,12.80
2018-11-26T07:30:21.741Z,10.07
2018-11-26T07:32:50.055Z,11.60
2018-11-26T07:35:18.328Z,8.57
2018-11-26T07:37:46.635Z,12.40
2018-11-26T07:40:15.876Z,11.27
2018-11-26T07:43:15.068Z,6.93
2018-11-26T07:45:43.312Z,7.03
2018-11-26T07:48:12.210Z,6.60
2018-11-26T07:50:40.498Z,8.27
2018-11-26T07:53:11.244Z,10.83
2018-11-26T07:55:40.232Z,5.80
2018-11-26T07:58:08.539Z,7.27
2018-11-26T08:00:36.796Z,6.47
2018-11-26T08:03:05.476Z,8.03
2018-11-26T08:05:33.756Z,9.13
2018-11-26T08:08:02.017Z,6.23
2018-11-26T08:10:30.299Z,6.43
2018-11-26T08:12:58.599Z,6.30
2018-11-26T08:15:28.078Z,7.10
2018-11-26T08:17:56.370Z,5.77
2018-11-26T08:20:24.630Z,7.03
2018-11-26T08:22:52.934Z,7.43
2018-11-26T08:25:22.300Z,5.67
2018-11-26T08:27:50.970Z,7.10
2018-11-26T08:30:24.117Z,7.63
2018-11-26T08:32:54.629Z,7.50
2018-11-26T08:35:22.908Z,7.90
2018-11-26T08:37:57.214Z,7.87
2018-11-26T08:40:28.586Z,4.50
2018-11-26T08:43:02.659Z,8.53
2018-11-26T08:45:42.575Z,9.83
2018-11-26T08:48:15.829Z,7.10
2018-11-26T08:50:44.795Z,5.40
2018-11-26T08:53:13.143Z,9.50
2018-11-26T08:55:41.786Z,7.20
2018-11-26T08:58:10.057Z,6.90
2018-11-26T09:00:38.357Z,5.17
2018-11-26T09:03:12.044Z,5.90
2018-11-26T09:05:50.930Z,6.47
2018-11-26T09:08:19.203Z,6.70
2018-11-26T09:10:47.615Z,5.80
2018-11-26T09:13:15.885Z,6.70
2018-11-26T09:15:44.177Z,7.20
2018-11-26T09:18:12.621Z,8.33
2018-11-26T09:20:40.894Z,5.00
2018-11-26T09:23:09.168Z,6.93
2018-11-26T09:25:37.771Z,7.50
2018-11-26T09:28:05.768Z,6.80
2018-11-26T09:30:34.050Z,7.80
2018-11-26T09:33:02.372Z,5.47
2018-11-26T09:35:30.786Z,7.97
2018-11-26T09:37:59.134Z,6.80
2018-11-26T09:40:27.425Z,7.30
2018-11-26T09:42:55.944Z,6.97
2018-11-26T09:45:24.308Z,7.07
2018-11-26T09:47:52.703Z,7.27
2018-11-26T09:50:22.696Z,6.23
2018-11-26T09:52:51.007Z,8.07
2018-11-26T09:55:19.429Z,7.70
2018-11-26T09:57:47.839Z,9.20
2018-11-26T10:00:18.135Z,7.47
2018-11-26T10:03:03.516Z,7.60
2018-11-26T10:08:21.556Z,6.33
2018-11-26T10:10:56.316Z,7.87
2018-11-26T10:13:25.461Z,7.70
2018-11-26T10:16:00.778Z,5.60
2018-11-26T10:18:29.119Z,6.70
2018-11-26T10:20:57.699Z,6.27
2018-11-26T10:23:26.076Z,8.50
2018-11-26T10:25:54.544Z,7.70
2018-11-26T10:28:22.933Z,7.20
2018-11-26T10:30:51.709Z,7.30
2018-11-26T10:33:20.018Z,8.20
2018-11-26T10:35:48.729Z,6.90
2018-11-26T10:38:17.064Z,6.00
2018-11-26T10:40:45.419Z,8.47
2018-11-26T10:43:13.788Z,7.10
2018-11-26T10:45:42.867Z,6.40
2018-11-26T10:48:11.239Z,7.23
2018-11-26T10:50:39.603Z,5.97
2018-11-26T10:53:08.318Z,9.60
2018-11-26T10:55:36.778Z,6.20
2018-11-26T10:58:06.646Z,6.13
2018-11-26T11:00:39.344Z,4.77
2018-11-26T11:03:07.875Z,7.30
2018-11-26T11:05:38.478Z,6.27
2018-11-26T11:08:07.996Z,7.17
2018-11-26T11:10:36.685Z,8.47
2018-11-26T11:13:05.643Z,7.23
2018-11-26T11:15:45.461Z,6.27
2018-11-26T11:18:13.967Z,7.27
2018-11-26T11:20:42.543Z,5.70
2018-11-26T11:23:13.053Z,8.33
2018-11-26T11:25:41.937Z,6.87
2018-11-26T11:28:10.225Z,8.23
2018-11-26T11:30:38.456Z,7.20
2018-11-26T11:35:35.753Z,5.73
2018-11-26T11:38:04.148Z,5.07
2018-11-26T11:40:33.525Z,6.47
2018-11-26T11:43:01.840Z,6.10
2018-11-26T11:45:31.201Z,5.70
2018-11-26T11:47:59.444Z,5.87
2018-11-26T11:50:27.737Z,5.80
2018-11-26T11:52:56.031Z,5.73
2018-11-26T11:55:25.574Z,7.53
2018-11-26T11:57:54.065Z,8.43
2018-11-26T12:00:30.650Z,7.13
2018-11-26T12:02:59.599Z,9.17
2018-11-26T12:05:27.833Z,7.87
2018-11-26T12:07:56.134Z,7.80
2018-11-26T12:10:24.423Z,8.50
2018-11-26T12:12:52.693Z,6.80
2018-11-26T12:15:20.978Z,7.53
2018-11-26T12:17:49.556Z,8.87
2018-11-26T12:20:17.870Z,7.97
2018-11-26T12:22:46.424Z,7.27
2018-11-26T12:25:16.758Z,6.40
2018-11-26T12:27:45.108Z,6.70
2018-11-26T12:30:21.402Z,7.70
2018-11-26T12:32:49.768Z,7.10
2018-11-26T12:35:18.054Z,6.30
2018-11-26T12:37:46.500Z,5.47
2018-11-26T12:40:18.031Z,5.47
2018-11-26T12:42:46.353Z,6.10
2018-11-26T12:45:18.889Z,7.20
2018-11-26T12:47:47.126Z,6.80
2018-11-26T12:50:15.440Z,7.27
2018-11-26T12:52:43.666Z,6.57
2018-11-26T13:00:53.239Z,5.80
2018-11-26T13:03:21.614Z,8.90
2018-11-26T13:05:49.906Z,8.23
2018-11-26T13:08:18.216Z,7.80
2018-11-26T13:10:46.489Z,5.07
2018-11-26T13:13:14.750Z,7.97
2018-11-26T13:15:43.024Z,8.10
2018-11-26T13:18:11.576Z,7.83
2018-11-26T13:20:39.605Z,7.17
2018-11-26T13:23:09.102Z,7.73
2018-11-26T13:25:41.741Z,6.03
2018-11-26T13:28:07.789Z,7.30
2018-11-26T13:30:38.517Z,5.80
2018-11-26T13:33:09.769Z,7.43
2018-11-26T13:35:38.428Z,6.80
2018-11-26T13:38:07.835Z,6.97
2018-11-26T13:40:36.204Z,8.00
2018-11-26T13:43:07.385Z,6.97
2018-11-26T13:45:37.418Z,6.37
2018-11-26T13:48:07.757Z,7.80
2018-11-26T13:50:38.753Z,7.77
2018-11-26T13:53:07.192Z,6.87
2018-11-26T13:55:35.471Z,8.53
2018-11-26T13:58:04.254Z,8.27
2018-11-26T14:00:32.970Z,8.73
2018-11-26T14:03:01.353Z,6.50
2018-11-26T14:05:29.703Z,8.87
2018-11-26T14:07:58.008Z,7.30
2018-11-26T14:10:27.310Z,7.70
2018-11-26T14:12:58.984Z,5.73
2018-11-26T14:15:27.249Z,7.40
2018-11-26T14:17:55.545Z,7.20
2018-11-26T14:20:23.812Z,6.90
2018-11-26T14:22:52.301Z,6.70
2018-11-26T14:25:20.653Z,7.73
2018-11-26T14:27:49.241Z,8.50
2018-11-26T14:30:24.105Z,7.47
2018-11-26T14:32:52.523Z,7.90
2018-11-26T14:35:20.942Z,7.20
2018-11-26T14:37:50.258Z,6.80
2018-11-26T14:40:27.857Z,6.73
2018-11-26T14:42:56.161Z,7.83
2018-11-26T14:45:24.909Z,7.57
2018-11-26T14:47:53.238Z,6.43
2018-11-26T14:50:21.564Z,9.10
2018-11-26T14:52:50.553Z,8.37
2018-11-26T14:55:21.947Z,9.20
2018-11-26T14:57:50.436Z,8.07
2018-11-26T15:00:19.492Z,9.07
2018-11-26T15:02:47.781Z,8.90
2018-11-26T15:05:16.213Z,7.97
2018-11-26T15:07:44.754Z,8.57
2018-11-26T15:10:18.020Z,8.50
2018-11-26T15:12:46.509Z,8.00
2018-11-26T15:15:23.727Z,7.17
2018-11-26T15:17:52.037Z,6.47
2018-11-26T15:20:23.644Z,7.60
2018-11-26T15:22:52.804Z,7.30
2018-11-26T15:25:23.966Z,6.87
2018-11-26T15:27:53.372Z,7.53
2018-11-26T15:30:22.277Z,9.07
2018-11-26T15:32:50.543Z,8.47
2018-11-26T15:35:21.895Z,9.33
2018-11-26T15:37:50.567Z,6.57
2018-11-26T15:40:19.817Z,9.63
2018-11-26T15:42:48.133Z,10.00
2018-11-26T15:45:20.777Z,8.87
2018-11-26T15:47:50.202Z,8.63
2018-11-26T15:50:18.744Z,7.90
2018-11-26T15:52:47.207Z,8.80
2018-11-26T15:55:17.257Z,7.80
2018-11-26T15:57:45.678Z,10.20
2018-11-26T16:00:19.177Z,8.27
2018-11-26T16:02:47.703Z,7.23
2018-11-26T16:05:19.247Z,8.63
2018-11-26T16:07:48.473Z,8.00
2018-11-26T16:10:16.973Z,6.70
2018-11-26T16:12:46.577Z,8.47
2018-11-26T16:15:17.674Z,7.80
2018-11-26T16:17:46.149Z,8.67
2018-11-26T16:20:19.162Z,8.93
2018-11-26T16:22:47.530Z,9.30
2018-11-26T16:25:19.094Z,7.90
2018-11-26T16:27:47.661Z,7.20
2018-11-26T16:30:17.859Z,7.70
2018-11-26T16:32:48.806Z,8.97
2018-11-26T16:35:20.662Z,7.20
2018-11-26T16:37:49.139Z,9.40
2018-11-26T16:40:19.174Z,8.37
2018-11-26T16:42:48.284Z,10.07
2018-11-26T16:45:18.089Z,9.70
2018-11-26T16:47:48.716Z,9.93
2018-11-26T16:50:18.363Z,9.27
2018-11-26T16:52:46.884Z,9.10
2018-11-26T16:55:16.728Z,6.90
2018-11-26T16:57:51.741Z,8.37
2018-11-26T17:00:23.923Z,8.37
2018-11-26T17:02:54.066Z,9.63
2018-11-26T17:05:27.878Z,8.60
2018-11-26T17:07:56.367Z,10.17
2018-11-26T17:10:24.974Z,11.07
2018-11-26T17:12:53.509Z,10.07
2018-11-26T17:15:21.951Z,8.63
2018-11-26T17:17:50.616Z,10.67
2018-11-26T17:20:18.889Z,11.43
2018-11-26T17:22:47.219Z,12.43
2018-11-26T17:25:16.339Z,8.33
2018-11-26T17:27:48.432Z,10.00
2018-11-26T17:30:19.270Z,7.77
2018-11-26T17:32:49.732Z,10.17
2018-11-26T17:35:18.397Z,7.87
2018-11-26T17:37:46.653Z,8.33
2018-11-26T17:40:19.213Z,8.37
2018-11-26T17:42:48.030Z,8.57
2018-11-26T17:45:17.042Z,10.17
2018-11-26T17:47:48.401Z,9.30
2018-11-26T17:50:21.565Z,10.03
2018-11-26T17:52:50.312Z,11.07
2018-11-26T17:55:18.624Z,9.90
2018-11-26T17:57:47.075Z,9.27
2018-11-26T18:00:19.645Z,10.40
2018-11-26T18:02:47.930Z,8.50
2018-11-26T18:05:17.767Z,9.70
2018-11-26T18:07:47.489Z,9.93
2018-11-26T18:10:16.055Z,10.20
2018-11-26T18:12:44.586Z,8.33
2018-11-26T18:15:14.536Z,11.30
2018-11-26T18:17:43.930Z,11.40
2018-11-26T18:20:17.578Z,9.27
2018-11-26T18:22:47.426Z,9.97
2018-11-26T18:25:16.284Z,9.50
2018-11-26T18:27:50.036Z,9.10
2018-11-26T18:30:23.127Z,9.60
2018-11-26T18:32:51.405Z,9.20
2018-11-26T18:35:19.961Z,7.50
2018-11-26T18:37:48.305Z,9.73
2018-11-26T18:40:17.282Z,8.20
2018-11-26T18:42:45.569Z,11.40
2018-11-26T18:45:15.989Z,7.50
2018-11-26T18:47:44.806Z,10.67
2018-11-26T18:50:17.649Z,10.10
2018-11-26T18:52:46.431Z,9.17
2018-11-26T18:55:14.928Z,10.57
2018-11-26T18:57:43.305Z,13.50
2018-11-26T19:00:14.745Z,10.03
2018-11-26T19:02:43.099Z,10.07
2018-11-26T19:05:12.353Z,10.13
2018-11-26T19:07:40.694Z,11.53
2018-11-26T19:10:13.107Z,11.53
2018-11-26T19:12:42.183Z,8.90
2018-11-26T19:15:17.496Z,10.90
2018-11-26T19:17:46.581Z,10.00
2018-11-26T19:20:15.606Z,9.30
2018-11-26T19:22:44.099Z,10.33
2018-11-26T19:25:14.274Z,8.83
2018-11-26T19:27:42.605Z,9.00
2018-11-26T19:30:12.614Z,8.77
2018-11-26T19:32:43.363Z,11.70
2018-11-26T19:35:12.978Z,10.73
2018-11-26T19:37:41.282Z,9.87
2018-11-26T19:40:18.138Z,9.23
2018-11-26T19:42:47.894Z,9.10
2018-11-26T19:45:19.487Z,8.67
2018-11-26T19:47:49.177Z,12.03
2018-11-26T19:50:18.870Z,10.67
2018-11-26T19:52:49.963Z,8.80
2018-11-26T19:55:21.404Z,10.60
2018-11-26T19:57:49.962Z,10.40
2018-11-26T20:00:28.575Z,12.17
2018-11-26T20:05:07.209Z,9.30
2018-11-26T20:07:35.993Z,6.70
2018-11-26T20:10:04.261Z,12.60
2018-11-26T20:12:32.545Z,9.00
2018-11-26T20:15:00.846Z,9.47
2018-11-26T20:17:29.137Z,10.20
2018-11-26T20:19:57.418Z,8.60
2018-11-26T20:22:25.757Z,9.50
2018-11-26T20:24:54.028Z,9.87
2018-11-26T20:27:22.342Z,7.20
2018-11-26T20:29:52.839Z,11.50
2018-11-26T20:32:21.115Z,9.27
2018-11-26T20:34:49.432Z,8.70
2018-11-26T20:37:17.759Z,8.23
2018-11-26T20:39:46.061Z,8.37
2018-11-26T20:42:14.353Z,11.93
2018-11-26T20:44:42.587Z,8.70
2018-11-26T20:47:10.966Z,9.47
2018-11-26T20:49:39.312Z,8.30
2018-11-26T20:52:07.716Z,9.57
2018-11-26T20:54:36.234Z,10.90
2018-11-26T20:57:04.554Z,8.20
2018-11-26T20:59:32.926Z,11.10
2018-11-26T21:02:01.306Z,9.37
2018-11-26T21:04:29.830Z,10.10
2018-11-26T21:06:58.271Z,9.53
2018-11-26T21:09:27.138Z,10.33
2018-11-26T21:12:00.122Z,11.87
2018-11-26T21:14:30.633Z,8.23
2018-11-26T21:16:59.009Z,8.90
2018-11-26T21:19:27.484Z,8.90
2018-11-26T21:21:55.837Z,10.23
2018-11-26T21:24:24.228Z,11.27
2018-11-26T21:26:52.514Z,11.17
2018-11-26T21:29:20.893Z,10.60
2018-11-26T21:31:49.212Z,9.10
2018-11-26T21:34:17.633Z,10.07
2018-11-26T21:36:46.078Z,8.87
2018-11-26T21:39:15.634Z,11.43
2018-11-26T21:41:45.976Z,6.70
2018-11-26T21:44:14.518Z,9.60
2018-11-26T21:46:43.003Z,11.77
2018-11-26T21:49:11.401Z,9.17
2018-11-26T21:51:39.974Z,10.47
2018-11-26T21:54:08.391Z,8.37
2018-11-26T21:56:36.827Z,8.80
2018-11-26T21:59:06.059Z,8.43
2018-11-26T22:01:34.411Z,9.50
2018-11-26T22:04:02.917Z,8.97
2018-11-26T22:06:31.378Z,10.33
2018-11-26T22:08:59.841Z,7.90
2018-11-26T22:11:30.446Z,8.47
2018-11-26T22:13:56.704Z,8.77
2018-11-26T22:16:25.603Z,10.50
2018-11-26T22:18:54.134Z,9.87
2018-11-26T22:21:23.103Z,8.80
2018-11-26T22:23:51.625Z,10.50
2018-11-26T22:26:19.965Z,11.20
2018-11-26T22:28:49.542Z,12.00
2018-11-26T22:31:18.236Z,10.30
2018-11-26T22:33:47.072Z,10.03
2018-11-26T22:36:15.624Z,8.83
2018-11-26T22:38:43.923Z,8.30
2018-11-26T22:41:12.892Z,9.10
2018-11-26T22:43:41.292Z,8.23
2018-11-26T22:46:09.744Z,10.00
2018-11-26T22:48:38.121Z,10.27
2018-11-26T22:51:06.494Z,10.37
2018-11-26T22:53:34.838Z,7.97
2018-11-26T22:56:06.454Z,10.00
2018-11-26T22:58:34.921Z,7.03
2018-11-26T23:01:03.941Z,9.77
2018-11-26T23:03:32.557Z,8.17
2018-11-26T23:06:01.916Z,8.97
2018-11-26T23:08:30.296Z,8.70
2018-11-26T23:10:58.574Z,9.73
2018-11-26T23:13:26.954Z,8.67
2018-11-26T23:15:55.277Z,8.37
2018-11-26T23:18:23.681Z,10.57
2018-11-26T23:20:52.124Z,9.50
2018-11-26T23:23:20.662Z,7.90
2018-11-26T23:25:48.932Z,8.03
2018-11-26T23:28:17.526Z,10.53
2018-11-26T23:30:45.935Z,9.50
2018-11-26T23:33:14.265Z,7.40
2018-11-26T23:35:42.628Z,9.77
2018-11-26T23:38:10.945Z,10.00
2018-11-26T23:40:39.355Z,9.23
2018-11-26T23:43:07.801Z,8.33
2018-11-26T23:45:36.604Z,7.73
2018-11-26T23:48:05.790Z,7.63
2018-11-26T23:50:34.683Z,8.10
2018-11-26T23:53:03.132Z,9.50
2018-11-26T23:55:31.850Z,8.63
2018-11-26T23:58:00.427Z,12.17
